sensor_id;sensor_type;location;lat;lon;timestamp;noise_LAeq;noise_LA_min;noise_LA_max;noise_LA01;noise_LA95
67308;Laerm;57662;51.436;5.978;2023-05-10T00:00:07;42.52;38.21;54.20;;
67308;Laerm;57662;51.436;5.978;2023-05-10T00:00:17;42.47;38.14;54.33;;
67308;Laerm;57662;51.436;5.978;2023-05-10T00:00:28;40.34;38.43;48.21;;
67308;Laerm;57662;51.436;5.978;2023-05-10T00:00:38;41.00;38.28;55.98;;
67308;Laerm;57662;51.436;5.978;2023-05-10T00:00:49;40.43;38.02;51.64;;
67308;Laerm;57662;51.436;5.978;2023-05-10T00:01:00;41.46;38.43;55.25;;
67308;Laerm;57662;51.436;5.978;2023-05-10T00:01:10;41.27;38.44;52.98;;
67308;Laerm;57662;51.436;5.978;2023-05-10T00:01:20;40.29;38.95;47.16;;
67308;Laerm;57662;51.436;5.978;2023-05-10T00:01:31;43.63;38.86;64.98;;
67308;Laerm;57662;51.436;5.978;2023-05-10T00:01:42;42.55;38.66;57.34;;
67308;Laerm;57662;51.436;5.978;2023-05-10T00:01:52;40.44;38.06;53.60;;
67308;Laerm;57662;51.436;5.978;2023-05-10T00:02:03;42.98;38.41;54.04;;
67308;Laerm;57662;51.436;5.978;2023-05-10T00:02:13;43.44;39.46;54.64;;
67308;Laerm;57662;51.436;5.978;2023-05-10T00:02:23;42.18;39.83;51.16;;
67308;Laerm;57662;51.436;5.978;2023-05-10T00:02:34;43.33;39.64;52.55;;
67308;Laerm;57662;51.436;5.978;2023-05-10T00:02:45;60.77;44.62;68.81;;
67308;Laerm;57662;51.436;5.978;2023-05-10T00:02:56;68.91;65.97;71.58;;
67308;Laerm;57662;51.436;5.978;2023-05-10T00:03:06;71.06;67.95;74.81;;
67308;Laerm;57662;51.436;5.978;2023-05-10T00:03:17;75.23;56.69;80.62;;
67308;Laerm;57662;51.436;5.978;2023-05-10T00:03:27;53.00;47.90;62.78;;
67308;Laerm;57662;51.436;5.978;2023-05-10T00:03:37;47.44;41.53;57.57;;
67308;Laerm;57662;51.436;5.978;2023-05-10T00:03:48;41.93;39.23;53.70;;
67308;Laerm;57662;51.436;5.978;2023-05-10T00:03:58;43.39;38.87;62.56;;
67308;Laerm;57662;51.436;5.978;2023-05-10T00:04:09;40.38;37.90;51.28;;
67308;Laerm;57662;51.436;5.978;2023-05-10T00:04:20;41.27;37.94;57.56;;
67308;Laerm;57662;51.436;5.978;2023-05-10T00:04:30;39.55;37.92;45.09;;
67308;Laerm;57662;51.436;5.978;2023-05-10T00:04:41;40.46;37.83;56.03;;
67308;Laerm;57662;51.436;5.978;2023-05-10T00:04:52;39.56;37.71;45.36;;
67308;Laerm;57662;51.436;5.978;2023-05-10T00:05:02;40.08;37.89;50.81;;
67308;Laerm;57662;51.436;5.978;2023-05-10T00:05:13;39.72;37.72;49.07;;
67308;Laerm;57662;51.436;5.978;2023-05-10T00:05:23;39.63;37.71;50.03;;
67308;Laerm;57662;51.436;5.978;2023-05-10T00:05:34;39.42;37.76;45.99;;
67308;Laerm;57662;51.436;5.978;2023-05-10T00:05:44;39.77;37.84;48.31;;
67308;Laerm;57662;51.436;5.978;2023-05-10T00:05:55;40.61;37.33;55.07;;
67308;Laerm;57662;51.436;5.978;2023-05-10T00:06:06;39.43;37.96;47.03;;
67308;Laerm;57662;51.436;5.978;2023-05-10T00:06:16;40.28;37.70;55.91;;
67308;Laerm;57662;51.436;5.978;2023-05-10T00:06:26;39.63;37.66;48.53;;
67308;Laerm;57662;51.436;5.978;2023-05-10T00:06:36;39.39;37.32;46.85;;
67308;Laerm;57662;51.436;5.978;2023-05-10T00:06:48;39.50;37.81;48.58;;
67308;Laerm;57662;51.436;5.978;2023-05-10T00:06:58;39.26;37.59;45.16;;
67308;Laerm;57662;51.436;5.978;2023-05-10T00:07:08;40.07;37.50;53.72;;
67308;Laerm;57662;51.436;5.978;2023-05-10T00:07:20;40.23;37.48;52.60;;
67308;Laerm;57662;51.436;5.978;2023-05-10T00:07:31;42.73;37.63;49.17;;
67308;Laerm;57662;51.436;5.978;2023-05-10T00:07:41;43.43;39.54;48.56;;
67308;Laerm;57662;51.436;5.978;2023-05-10T00:07:54;41.71;38.60;48.40;;
67308;Laerm;57662;51.436;5.978;2023-05-10T00:08:05;43.60;39.49;53.23;;
67308;Laerm;57662;51.436;5.978;2023-05-10T00:08:15;42.96;40.36;52.07;;
67308;Laerm;57662;51.436;5.978;2023-05-10T00:08:25;63.70;41.40;73.08;;
67308;Laerm;57662;51.436;5.978;2023-05-10T00:08:35;70.52;67.71;73.47;;
67308;Laerm;57662;51.436;5.978;2023-05-10T00:08:46;70.30;68.10;72.91;;
67308;Laerm;57662;51.436;5.978;2023-05-10T00:08:57;66.37;51.43;71.64;;
67308;Laerm;57662;51.436;5.978;2023-05-10T00:09:07;50.16;44.86;60.28;;
67308;Laerm;57662;51.436;5.978;2023-05-10T00:09:18;44.29;39.71;53.45;;
67308;Laerm;57662;51.436;5.978;2023-05-10T00:09:28;41.39;39.27;47.91;;
67308;Laerm;57662;51.436;5.978;2023-05-10T00:09:38;41.02;38.30;56.18;;
67308;Laerm;57662;51.436;5.978;2023-05-10T00:09:50;40.35;38.17;47.88;;
67308;Laerm;57662;51.436;5.978;2023-05-10T00:10:00;40.49;38.22;49.31;;
67308;Laerm;57662;51.436;5.978;2023-05-10T00:10:11;39.83;38.23;53.99;;
67308;Laerm;57662;51.436;5.978;2023-05-10T00:10:21;40.05;37.62;55.89;;
67308;Laerm;57662;51.436;5.978;2023-05-10T00:10:31;39.11;37.80;43.09;;
67308;Laerm;57662;51.436;5.978;2023-05-10T00:10:42;39.57;37.86;50.68;;
67308;Laerm;57662;51.436;5.978;2023-05-10T00:10:53;40.00;37.61;51.91;;
67308;Laerm;57662;51.436;5.978;2023-05-10T00:11:04;39.60;37.75;48.17;;
67308;Laerm;57662;51.436;5.978;2023-05-10T00:11:14;39.77;37.87;51.75;;
67308;Laerm;57662;51.436;5.978;2023-05-10T00:11:24;39.48;37.77;43.33;;
67308;Laerm;57662;51.436;5.978;2023-05-10T00:11:35;39.66;37.93;46.99;;
67308;Laerm;57662;51.436;5.978;2023-05-10T00:11:45;39.24;37.10;44.28;;
67308;Laerm;57662;51.436;5.978;2023-05-10T00:11:56;39.71;37.80;44.42;;
67308;Laerm;57662;51.436;5.978;2023-05-10T00:12:08;39.75;37.54;50.32;;
67308;Laerm;57662;51.436;5.978;2023-05-10T00:12:19;39.23;38.08;44.85;;
67308;Laerm;57662;51.436;5.978;2023-05-10T00:12:29;40.65;38.18;52.78;;
67308;Laerm;57662;51.436;5.978;2023-05-10T00:12:40;39.72;37.95;50.26;;
67308;Laerm;57662;51.436;5.978;2023-05-10T00:12:50;39.13;37.62;45.47;;
67308;Laerm;57662;51.436;5.978;2023-05-10T00:13:00;40.93;38.00;56.31;;
67308;Laerm;57662;51.436;5.978;2023-05-10T00:13:11;39.08;37.81;41.43;;
67308;Laerm;57662;51.436;5.978;2023-05-10T00:13:22;39.46;37.44;51.92;;
67308;Laerm;57662;51.436;5.978;2023-05-10T00:13:32;43.26;38.27;48.00;;
67308;Laerm;57662;51.436;5.978;2023-05-10T00:13:43;43.51;40.38;47.56;;
67308;Laerm;57662;51.436;5.978;2023-05-10T00:13:53;43.01;40.09;48.38;;
67308;Laerm;57662;51.436;5.978;2023-05-10T00:14:04;45.33;41.72;48.73;;
67308;Laerm;57662;51.436;5.978;2023-05-10T00:14:15;64.76;45.59;72.39;;
67308;Laerm;57662;51.436;5.978;2023-05-10T00:14:25;72.07;68.80;74.82;;
67308;Laerm;57662;51.436;5.978;2023-05-10T00:14:36;69.48;65.99;73.36;;
67308;Laerm;57662;51.436;5.978;2023-05-10T00:14:46;63.66;48.78;70.23;;
67308;Laerm;57662;51.436;5.978;2023-05-10T00:14:56;46.75;40.40;51.25;;
67308;Laerm;57662;51.436;5.978;2023-05-10T00:15:07;41.47;39.37;46.04;;
67308;Laerm;57662;51.436;5.978;2023-05-10T00:15:18;41.40;37.77;59.05;;
67308;Laerm;57662;51.436;5.978;2023-05-10T00:15:28;40.56;37.94;47.99;;
67308;Laerm;57662;51.436;5.978;2023-05-10T00:15:40;39.66;37.71;49.44;;
67308;Laerm;57662;51.436;5.978;2023-05-10T00:15:51;39.36;37.71;50.78;;
67308;Laerm;57662;51.436;5.978;2023-05-10T00:16:01;38.99;37.56;40.56;;
67308;Laerm;57662;51.436;5.978;2023-05-10T00:16:12;39.55;37.66;48.20;;
67308;Laerm;57662;51.436;5.978;2023-05-10T00:16:23;39.32;37.46;50.59;;
67308;Laerm;57662;51.436;5.978;2023-05-10T00:16:34;39.54;38.07;45.60;;
67308;Laerm;57662;51.436;5.978;2023-05-10T00:16:44;39.26;37.48;47.01;;
67308;Laerm;57662;51.436;5.978;2023-05-10T00:16:55;39.13;37.71;43.70;;
67308;Laerm;57662;51.436;5.978;2023-05-10T00:17:06;39.45;37.89;45.11;;
67308;Laerm;57662;51.436;5.978;2023-05-10T00:17:16;42.02;38.05;47.99;;
67308;Laerm;57662;51.436;5.978;2023-05-10T00:17:26;43.26;39.87;47.42;;
67308;Laerm;57662;51.436;5.978;2023-05-10T00:17:37;42.93;40.61;49.93;;
67308;Laerm;57662;51.436;5.978;2023-05-10T00:17:48;43.19;40.06;50.04;;
67308;Laerm;57662;51.436;5.978;2023-05-10T00:17:58;53.60;42.85;63.83;;
67308;Laerm;57662;51.436;5.978;2023-05-10T00:18:09;70.27;64.32;73.38;;
67308;Laerm;57662;51.436;5.978;2023-05-10T00:18:19;66.63;64.57;69.65;;
67308;Laerm;57662;51.436;5.978;2023-05-10T00:18:30;61.62;45.45;68.12;;
67308;Laerm;57662;51.436;5.978;2023-05-10T00:18:41;48.09;40.36;64.45;;
67308;Laerm;57662;51.436;5.978;2023-05-10T00:18:51;42.24;38.69;58.45;;
67308;Laerm;57662;51.436;5.978;2023-05-10T00:19:02;40.42;38.20;50.70;;
67308;Laerm;57662;51.436;5.978;2023-05-10T00:19:12;39.48;37.68;44.30;;
67308;Laerm;57662;51.436;5.978;2023-05-10T00:19:22;39.13;37.40;41.38;;
67308;Laerm;57662;51.436;5.978;2023-05-10T00:19:33;39.98;37.94;51.10;;
67308;Laerm;57662;51.436;5.978;2023-05-10T00:19:44;39.42;37.97;45.72;;
67308;Laerm;57662;51.436;5.978;2023-05-10T00:19:54;39.35;37.25;48.80;;
67308;Laerm;57662;51.436;5.978;2023-05-10T00:20:05;39.21;37.26;50.20;;
67308;Laerm;57662;51.436;5.978;2023-05-10T00:20:15;38.95;37.63;44.66;;
67308;Laerm;57662;51.436;5.978;2023-05-10T00:20:26;38.96;37.60;41.02;;
67308;Laerm;57662;51.436;5.978;2023-05-10T00:20:37;39.03;37.80;43.06;;
67308;Laerm;57662;51.436;5.978;2023-05-10T00:20:47;42.83;38.34;47.12;;
67308;Laerm;57662;51.436;5.978;2023-05-10T00:20:59;42.58;39.29;49.27;;
67308;Laerm;57662;51.436;5.978;2023-05-10T00:21:09;43.24;40.14;53.82;;
67308;Laerm;57662;51.436;5.978;2023-05-10T00:21:19;50.65;42.40;57.78;;
67308;Laerm;57662;51.436;5.978;2023-05-10T00:21:30;73.70;57.03;78.36;;
67308;Laerm;57662;51.436;5.978;2023-05-10T00:21:41;75.51;69.13;79.12;;
67308;Laerm;57662;51.436;5.978;2023-05-10T00:21:52;59.61;47.58;69.57;;
67308;Laerm;57662;51.436;5.978;2023-05-10T00:22:03;43.31;39.94;48.97;;
67308;Laerm;57662;51.436;5.978;2023-05-10T00:22:13;41.05;38.22;56.55;;
67308;Laerm;57662;51.436;5.978;2023-05-10T00:22:23;39.52;37.44;46.15;;
67308;Laerm;57662;51.436;5.978;2023-05-10T00:22:34;39.97;37.61;52.51;;
67308;Laerm;57662;51.436;5.978;2023-05-10T00:22:44;39.20;37.35;49.78;;
67308;Laerm;57662;51.436;5.978;2023-05-10T00:22:55;39.21;37.76;51.09;;
67308;Laerm;57662;51.436;5.978;2023-05-10T00:23:06;38.97;37.38;46.20;;
67308;Laerm;57662;51.436;5.978;2023-05-10T00:23:16;38.93;37.29;47.75;;
67308;Laerm;57662;51.436;5.978;2023-05-10T00:23:26;38.89;37.48;41.11;;
67308;Laerm;57662;51.436;5.978;2023-05-10T00:23:36;39.06;37.48;47.13;;
67308;Laerm;57662;51.436;5.978;2023-05-10T00:23:48;38.97;37.08;43.60;;
67308;Laerm;57662;51.436;5.978;2023-05-10T00:23:58;38.86;37.45;43.73;;
67308;Laerm;57662;51.436;5.978;2023-05-10T00:24:09;39.08;37.83;43.58;;
67308;Laerm;57662;51.436;5.978;2023-05-10T00:24:19;38.85;37.50;42.54;;
67308;Laerm;57662;51.436;5.978;2023-05-10T00:24:29;39.27;37.42;45.00;;
67308;Laerm;57662;51.436;5.978;2023-05-10T00:24:39;40.20;37.37;52.83;;
67308;Laerm;57662;51.436;5.978;2023-05-10T00:24:50;44.42;40.16;48.53;;
67308;Laerm;57662;51.436;5.978;2023-05-10T00:25:00;44.91;40.79;48.59;;
67308;Laerm;57662;51.436;5.978;2023-05-10T00:25:10;43.99;40.49;53.45;;
67308;Laerm;57662;51.436;5.978;2023-05-10T00:25:21;43.13;39.62;46.15;;
67308;Laerm;57662;51.436;5.978;2023-05-10T00:25:32;53.74;39.64;66.61;;
67308;Laerm;57662;51.436;5.978;2023-05-10T00:25:42;70.36;67.11;74.46;;
67308;Laerm;57662;51.436;5.978;2023-05-10T00:25:52;70.42;66.08;72.54;;
67308;Laerm;57662;51.436;5.978;2023-05-10T00:26:03;58.12;49.19;68.09;;
67308;Laerm;57662;51.436;5.978;2023-05-10T00:26:13;48.02;43.69;54.09;;
67308;Laerm;57662;51.436;5.978;2023-05-10T00:26:23;46.89;43.10;52.47;;
67308;Laerm;57662;51.436;5.978;2023-05-10T00:26:34;45.90;42.82;49.69;;
67308;Laerm;57662;51.436;5.978;2023-05-10T00:26:45;41.44;39.69;48.63;;
67308;Laerm;57662;51.436;5.978;2023-05-10T00:26:55;41.69;39.13;55.83;;
67308;Laerm;57662;51.436;5.978;2023-05-10T00:27:06;40.58;39.07;47.04;;
67308;Laerm;57662;51.436;5.978;2023-05-10T00:27:16;40.35;37.92;54.03;;
67308;Laerm;57662;51.436;5.978;2023-05-10T00:27:26;39.21;37.94;40.79;;
67308;Laerm;57662;51.436;5.978;2023-05-10T00:27:37;39.28;37.54;40.98;;
67308;Laerm;57662;51.436;5.978;2023-05-10T00:27:48;39.76;37.87;48.58;;
67308;Laerm;57662;51.436;5.978;2023-05-10T00:28:00;39.18;37.74;42.60;;
67308;Laerm;57662;51.436;5.978;2023-05-10T00:28:12;39.30;37.34;47.14;;
67308;Laerm;57662;51.436;5.978;2023-05-10T00:28:23;39.23;37.65;46.62;;
67308;Laerm;57662;51.436;5.978;2023-05-10T00:28:33;38.99;37.40;44.58;;
67308;Laerm;57662;51.436;5.978;2023-05-10T00:28:43;39.13;37.60;49.61;;
67308;Laerm;57662;51.436;5.978;2023-05-10T00:28:54;39.31;37.58;51.32;;
67308;Laerm;57662;51.436;5.978;2023-05-10T00:29:04;40.22;37.85;53.56;;
67308;Laerm;57662;51.436;5.978;2023-05-10T00:29:14;39.05;37.38;41.40;;
67308;Laerm;57662;51.436;5.978;2023-05-10T00:29:26;39.25;37.59;47.87;;
67308;Laerm;57662;51.436;5.978;2023-05-10T00:29:38;39.08;37.49;43.92;;
67308;Laerm;57662;51.436;5.978;2023-05-10T00:29:48;39.65;38.09;47.80;;
67308;Laerm;57662;51.436;5.978;2023-05-10T00:29:58;39.71;37.97;47.31;;
67308;Laerm;57662;51.436;5.978;2023-05-10T00:30:09;39.22;37.92;40.68;;
67308;Laerm;57662;51.436;5.978;2023-05-10T00:30:19;40.08;38.06;47.38;;
67308;Laerm;57662;51.436;5.978;2023-05-10T00:30:31;39.50;37.60;53.59;;
67308;Laerm;57662;51.436;5.978;2023-05-10T00:30:41;39.97;37.90;49.78;;
67308;Laerm;57662;51.436;5.978;2023-05-10T00:30:51;43.55;39.86;46.77;;
67308;Laerm;57662;51.436;5.978;2023-05-10T00:31:01;42.38;40.20;46.53;;
67308;Laerm;57662;51.436;5.978;2023-05-10T00:31:12;45.25;40.99;54.26;;
67308;Laerm;57662;51.436;5.978;2023-05-10T00:31:22;61.98;44.41;71.38;;
67308;Laerm;57662;51.436;5.978;2023-05-10T00:31:33;72.39;69.54;75.10;;
67308;Laerm;57662;51.436;5.978;2023-05-10T00:31:44;75.03;72.42;77.40;;
67308;Laerm;57662;51.436;5.978;2023-05-10T00:31:54;68.60;51.84;76.50;;
67308;Laerm;57662;51.436;5.978;2023-05-10T00:32:05;48.96;42.12;54.02;;
67308;Laerm;57662;51.436;5.978;2023-05-10T00:32:16;41.80;39.56;48.54;;
67308;Laerm;57662;51.436;5.978;2023-05-10T00:32:27;40.47;37.89;48.23;;
67308;Laerm;57662;51.436;5.978;2023-05-10T00:32:37;40.19;38.12;52.64;;
67308;Laerm;57662;51.436;5.978;2023-05-10T00:32:47;39.33;37.57;47.73;;
67308;Laerm;57662;51.436;5.978;2023-05-10T00:32:59;39.15;37.44;41.52;;
67308;Laerm;57662;51.436;5.978;2023-05-10T00:33:10;38.94;37.41;41.88;;
67308;Laerm;57662;51.436;5.978;2023-05-10T00:33:22;39.34;37.21;53.15;;
67308;Laerm;57662;51.436;5.978;2023-05-10T00:33:33;38.58;37.54;42.13;;
67308;Laerm;57662;51.436;5.978;2023-05-10T00:33:43;39.41;37.34;50.01;;
67308;Laerm;57662;51.436;5.978;2023-05-10T00:33:54;38.95;36.67;45.40;;
67308;Laerm;57662;51.436;5.978;2023-05-10T00:34:04;39.07;37.40;49.02;;
67308;Laerm;57662;51.436;5.978;2023-05-10T00:34:15;38.87;37.66;40.72;;
67308;Laerm;57662;51.436;5.978;2023-05-10T00:34:25;40.54;37.49;58.31;;
67308;Laerm;57662;51.436;5.978;2023-05-10T00:34:35;39.12;37.46;48.06;;
67308;Laerm;57662;51.436;5.978;2023-05-10T00:34:47;39.05;37.61;45.81;;
67308;Laerm;57662;51.436;5.978;2023-05-10T00:34:57;38.78;37.52;40.42;;
67308;Laerm;57662;51.436;5.978;2023-05-10T00:35:08;38.81;36.86;46.02;;
67308;Laerm;57662;51.436;5.978;2023-05-10T00:35:18;39.79;37.31;55.66;;
67308;Laerm;57662;51.436;5.978;2023-05-10T00:35:29;38.79;37.50;42.10;;
67308;Laerm;57662;51.436;5.978;2023-05-10T00:35:40;39.43;37.82;43.98;;
67308;Laerm;57662;51.436;5.978;2023-05-10T00:35:51;39.13;37.55;43.61;;
67308;Laerm;57662;51.436;5.978;2023-05-10T00:36:01;39.05;37.56;42.81;;
67308;Laerm;57662;51.436;5.978;2023-05-10T00:36:11;39.65;37.89;49.42;;
67308;Laerm;57662;51.436;5.978;2023-05-10T00:36:22;39.25;37.73;40.56;;
67308;Laerm;57662;51.436;5.978;2023-05-10T00:36:32;39.16;37.85;45.00;;
67308;Laerm;57662;51.436;5.978;2023-05-10T00:36:43;38.97;37.57;45.15;;
67308;Laerm;57662;51.436;5.978;2023-05-10T00:36:54;39.41;37.73;49.34;;
67308;Laerm;57662;51.436;5.978;2023-05-10T00:37:04;39.65;37.45;46.58;;
67308;Laerm;57662;51.436;5.978;2023-05-10T00:37:14;39.12;37.70;44.93;;
67308;Laerm;57662;51.436;5.978;2023-05-10T00:37:25;38.83;37.49;42.18;;
67308;Laerm;57662;51.436;5.978;2023-05-10T00:37:35;38.88;37.48;43.67;;
67308;Laerm;57662;51.436;5.978;2023-05-10T00:37:45;39.07;37.50;42.97;;
67308;Laerm;57662;51.436;5.978;2023-05-10T00:37:57;38.99;37.49;40.53;;
67308;Laerm;57662;51.436;5.978;2023-05-10T00:38:07;40.13;37.65;54.97;;
67308;Laerm;57662;51.436;5.978;2023-05-10T00:38:18;40.97;38.43;50.02;;
67308;Laerm;57662;51.436;5.978;2023-05-10T00:38:29;45.23;41.10;50.51;;
67308;Laerm;57662;51.436;5.978;2023-05-10T00:38:40;50.24;45.45;53.80;;
67308;Laerm;57662;51.436;5.978;2023-05-10T00:38:50;43.62;40.06;48.64;;
67308;Laerm;57662;51.436;5.978;2023-05-10T00:39:00;40.09;37.89;50.58;;
67308;Laerm;57662;51.436;5.978;2023-05-10T00:39:11;38.94;37.07;45.35;;
67308;Laerm;57662;51.436;5.978;2023-05-10T00:39:22;38.87;37.36;40.61;;
67308;Laerm;57662;51.436;5.978;2023-05-10T00:39:33;39.08;37.22;50.03;;
67308;Laerm;57662;51.436;5.978;2023-05-10T00:39:43;39.29;37.66;51.16;;
67308;Laerm;57662;51.436;5.978;2023-05-10T00:39:53;39.13;37.82;46.13;;
67308;Laerm;57662;51.436;5.978;2023-05-10T00:40:04;39.07;37.19;45.96;;
67308;Laerm;57662;51.436;5.978;2023-05-10T00:40:15;39.30;37.79;49.06;;
67308;Laerm;57662;51.436;5.978;2023-05-10T00:40:25;39.05;37.71;46.85;;
67308;Laerm;57662;51.436;5.978;2023-05-10T00:40:36;38.89;37.44;40.10;;
67308;Laerm;57662;51.436;5.978;2023-05-10T00:40:47;39.05;37.47;48.30;;
67308;Laerm;57662;51.436;5.978;2023-05-10T00:40:58;38.87;37.46;45.62;;
67308;Laerm;57662;51.436;5.978;2023-05-10T00:41:08;38.83;37.39;43.07;;
67308;Laerm;57662;51.436;5.978;2023-05-10T00:41:18;38.98;37.07;49.39;;
67308;Laerm;57662;51.436;5.978;2023-05-10T00:41:29;39.29;37.35;52.68;;
67308;Laerm;57662;51.436;5.978;2023-05-10T00:41:41;39.14;37.31;51.74;;
67308;Laerm;57662;51.436;5.978;2023-05-10T00:41:52;38.86;37.02;42.60;;
67308;Laerm;57662;51.436;5.978;2023-05-10T00:42:03;39.22;37.30;50.75;;
67308;Laerm;57662;51.436;5.978;2023-05-10T00:42:14;38.89;37.46;43.09;;
67308;Laerm;57662;51.436;5.978;2023-05-10T00:42:25;39.31;37.21;51.93;;
67308;Laerm;57662;51.436;5.978;2023-05-10T00:42:36;38.94;37.38;45.58;;
67308;Laerm;57662;51.436;5.978;2023-05-10T00:42:46;38.81;37.54;40.43;;
67308;Laerm;57662;51.436;5.978;2023-05-10T00:42:57;39.03;37.63;45.28;;
67308;Laerm;57662;51.436;5.978;2023-05-10T00:43:08;38.95;37.67;41.64;;
67308;Laerm;57662;51.436;5.978;2023-05-10T00:43:19;38.86;37.23;47.22;;
67308;Laerm;57662;51.436;5.978;2023-05-10T00:43:29;39.04;37.72;47.57;;
67308;Laerm;57662;51.436;5.978;2023-05-10T00:43:39;38.81;37.02;45.00;;
67308;Laerm;57662;51.436;5.978;2023-05-10T00:43:50;38.82;37.46;40.61;;
67308;Laerm;57662;51.436;5.978;2023-05-10T00:44:00;39.03;37.23;48.92;;
67308;Laerm;57662;51.436;5.978;2023-05-10T00:44:12;38.79;37.57;40.43;;
67308;Laerm;57662;51.436;5.978;2023-05-10T00:44:22;38.75;37.46;41.25;;
67308;Laerm;57662;51.436;5.978;2023-05-10T00:44:32;40.79;37.74;47.17;;
67308;Laerm;57662;51.436;5.978;2023-05-10T00:44:43;43.43;40.53;46.47;;
67308;Laerm;57662;51.436;5.978;2023-05-10T00:44:54;44.05;40.08;46.96;;
67308;Laerm;57662;51.436;5.978;2023-05-10T00:45:06;43.92;39.25;49.38;;
67308;Laerm;57662;51.436;5.978;2023-05-10T00:45:17;43.22;40.30;46.78;;
67308;Laerm;57662;51.436;5.978;2023-05-10T00:45:27;67.82;41.65;75.32;;
67308;Laerm;57662;51.436;5.978;2023-05-10T00:45:37;72.89;68.34;79.97;;
67308;Laerm;57662;51.436;5.978;2023-05-10T00:45:49;74.95;57.18;80.73;;
67308;Laerm;57662;51.436;5.978;2023-05-10T00:46:00;55.34;49.34;64.78;;
67308;Laerm;57662;51.436;5.978;2023-05-10T00:46:10;46.72;42.64;52.87;;
67308;Laerm;57662;51.436;5.978;2023-05-10T00:46:20;43.06;41.23;47.64;;
67308;Laerm;57662;51.436;5.978;2023-05-10T00:46:32;42.38;40.16;50.15;;
67308;Laerm;57662;51.436;5.978;2023-05-10T00:46:42;41.74;40.14;47.96;;
67308;Laerm;57662;51.436;5.978;2023-05-10T00:46:54;40.65;38.56;48.96;;
67308;Laerm;57662;51.436;5.978;2023-05-10T00:47:04;40.94;39.45;49.36;;
67308;Laerm;57662;51.436;5.978;2023-05-10T00:47:15;42.95;40.18;45.74;;
67308;Laerm;57662;51.436;5.978;2023-05-10T00:47:26;41.48;38.97;46.89;;
67308;Laerm;57662;51.436;5.978;2023-05-10T00:47:37;40.43;37.89;47.61;;
67308;Laerm;57662;51.436;5.978;2023-05-10T00:47:47;39.58;37.31;45.21;;
67308;Laerm;57662;51.436;5.978;2023-05-10T00:47:58;39.54;38.05;42.30;;
67308;Laerm;57662;51.436;5.978;2023-05-10T00:48:10;39.84;37.85;42.40;;
67308;Laerm;57662;51.436;5.978;2023-05-10T00:48:20;39.14;37.80;41.27;;
67308;Laerm;57662;51.436;5.978;2023-05-10T00:48:31;39.42;37.74;52.48;;
67308;Laerm;57662;51.436;5.978;2023-05-10T00:48:42;38.96;37.61;40.43;;
67308;Laerm;57662;51.436;5.978;2023-05-10T00:48:52;39.08;37.25;40.66;;
67308;Laerm;57662;51.436;5.978;2023-05-10T00:49:03;39.12;37.82;42.59;;
67308;Laerm;57662;51.436;5.978;2023-05-10T00:49:15;39.10;37.83;40.31;;
67308;Laerm;57662;51.436;5.978;2023-05-10T00:49:26;38.98;37.38;43.91;;
67308;Laerm;57662;51.436;5.978;2023-05-10T00:49:36;39.12;37.51;48.65;;
67308;Laerm;57662;51.436;5.978;2023-05-10T00:49:47;39.06;37.83;42.47;;
67308;Laerm;57662;51.436;5.978;2023-05-10T00:49:58;39.17;37.38;49.98;;
67308;Laerm;57662;51.436;5.978;2023-05-10T00:50:10;39.01;36.85;47.01;;
67308;Laerm;57662;51.436;5.978;2023-05-10T00:50:21;38.78;37.34;40.40;;
67308;Laerm;57662;51.436;5.978;2023-05-10T00:50:32;39.08;37.18;50.40;;
67308;Laerm;57662;51.436;5.978;2023-05-10T00:50:43;38.70;37.45;41.41;;
67308;Laerm;57662;51.436;5.978;2023-05-10T00:50:53;38.66;37.34;39.99;;
67308;Laerm;57662;51.436;5.978;2023-05-10T00:51:03;40.04;36.94;46.22;;
67308;Laerm;57662;51.436;5.978;2023-05-10T00:51:14;44.27;40.64;48.09;;
67308;Laerm;57662;51.436;5.978;2023-05-10T00:51:25;42.13;39.26;49.90;;
67308;Laerm;57662;51.436;5.978;2023-05-10T00:51:35;43.00;38.59;56.87;;
67308;Laerm;57662;51.436;5.978;2023-05-10T00:51:48;43.53;38.94;46.87;;
67308;Laerm;57662;51.436;5.978;2023-05-10T00:51:58;70.97;41.19;77.04;;
67308;Laerm;57662;51.436;5.978;2023-05-10T00:52:09;75.82;71.89;80.60;;
67308;Laerm;57662;51.436;5.978;2023-05-10T00:52:20;74.08;56.84;79.51;;
67308;Laerm;57662;51.436;5.978;2023-05-10T00:52:30;52.90;47.46;58.16;;
67308;Laerm;57662;51.436;5.978;2023-05-10T00:52:41;46.62;42.35;54.47;;
67308;Laerm;57662;51.436;5.978;2023-05-10T00:52:52;43.56;41.57;46.30;;
67308;Laerm;57662;51.436;5.978;2023-05-10T00:53:03;42.69;40.77;44.83;;
67308;Laerm;57662;51.436;5.978;2023-05-10T00:53:14;44.92;41.29;48.80;;
67308;Laerm;57662;51.436;5.978;2023-05-10T00:53:24;42.64;40.00;47.75;;
67308;Laerm;57662;51.436;5.978;2023-05-10T00:53:35;41.80;40.16;43.82;;
67308;Laerm;57662;51.436;5.978;2023-05-10T00:53:46;42.33;39.40;45.65;;
67308;Laerm;57662;51.436;5.978;2023-05-10T00:53:56;39.98;37.59;47.46;;
67308;Laerm;57662;51.436;5.978;2023-05-10T00:54:07;39.61;38.05;49.70;;
67308;Laerm;57662;51.436;5.978;2023-05-10T00:54:17;40.55;37.90;57.13;;
67308;Laerm;57662;51.436;5.978;2023-05-10T00:54:28;39.47;37.81;49.44;;
67308;Laerm;57662;51.436;5.978;2023-05-10T00:54:39;39.32;37.79;49.11;;
67308;Laerm;57662;51.436;5.978;2023-05-10T00:54:50;39.28;37.54;44.14;;
67308;Laerm;57662;51.436;5.978;2023-05-10T00:55:01;39.52;38.10;40.94;;
67308;Laerm;57662;51.436;5.978;2023-05-10T00:55:13;39.60;38.08;41.39;;
67308;Laerm;57662;51.436;5.978;2023-05-10T00:55:24;39.56;37.50;49.89;;
67308;Laerm;57662;51.436;5.978;2023-05-10T00:55:34;39.09;37.74;40.56;;
67308;Laerm;57662;51.436;5.978;2023-05-10T00:55:45;38.98;36.93;40.79;;
67308;Laerm;57662;51.436;5.978;2023-05-10T00:55:55;39.05;37.80;41.74;;
67308;Laerm;57662;51.436;5.978;2023-05-10T00:56:05;39.37;37.86;41.27;;
67308;Laerm;57662;51.436;5.978;2023-05-10T00:56:17;48.58;40.76;54.14;;
67308;Laerm;57662;51.436;5.978;2023-05-10T00:56:27;46.10;41.88;49.83;;
67308;Laerm;57662;51.436;5.978;2023-05-10T00:56:39;40.90;38.39;43.85;;
67308;Laerm;57662;51.436;5.978;2023-05-10T00:56:50;39.16;37.55;40.63;;
67308;Laerm;57662;51.436;5.978;2023-05-10T00:57:01;39.18;37.62;43.60;;
67308;Laerm;57662;51.436;5.978;2023-05-10T00:57:14;39.13;37.57;44.03;;
67308;Laerm;57662;51.436;5.978;2023-05-10T00:57:24;39.13;37.29;40.57;;
67308;Laerm;57662;51.436;5.978;2023-05-10T00:57:35;39.52;37.71;51.65;;
67308;Laerm;57662;51.436;5.978;2023-05-10T00:57:45;39.03;37.68;40.33;;
67308;Laerm;57662;51.436;5.978;2023-05-10T00:57:56;39.01;37.37;43.66;;
67308;Laerm;57662;51.436;5.978;2023-05-10T00:58:07;39.64;37.43;54.53;;
67308;Laerm;57662;51.436;5.978;2023-05-10T00:58:17;39.33;38.14;40.67;;
67308;Laerm;57662;51.436;5.978;2023-05-10T00:58:28;39.41;37.71;48.38;;
67308;Laerm;57662;51.436;5.978;2023-05-10T00:58:39;39.00;37.68;40.58;;
67308;Laerm;57662;51.436;5.978;2023-05-10T00:58:49;38.86;37.74;40.08;;
67308;Laerm;57662;51.436;5.978;2023-05-10T00:59:00;38.83;37.32;40.08;;
67308;Laerm;57662;51.436;5.978;2023-05-10T00:59:11;38.86;37.36;43.02;;
67308;Laerm;57662;51.436;5.978;2023-05-10T00:59:22;38.89;37.53;40.39;;
67308;Laerm;57662;51.436;5.978;2023-05-10T00:59:32;38.80;37.40;40.84;;
67308;Laerm;57662;51.436;5.978;2023-05-10T00:59:43;38.97;37.74;43.43;;